MV Sea Wolf — WCW6738 — position and weather

sailwx.info

Track history (hours):
 
Tides and Currents Weather Stations Pressure Air Temp Water Temp Dewpoint Dewpoint Depression Visibility Wind Speed Wind Dir Waves Ship Positions

MV Sea Wolf

Owner: SEA WOLF MARINE TOWING & TRANSPORTATION, Bayonne, NJ. More information available from US FCC via Universal Licensing System and Coast Guard Vessel Documentation Center.

Last reported at 2017-Jul-28 08:30 UTC. Time now 2017-Jul-28 08:41 UTC.
Position N 40°46' W 074°00'.

Length 66 m; draft 10 m.

MMSI: 367002350.

Date/timePositionNaut miles runAvg speedWind from/ knotsBaromVisibWave heightAir tempDewpointWater temp
2017-Jul-28 08:30N 40°46' W 074°00'0 0.0
2017-Jul-28 08:00N 40°46' W 074°00'0 0.0
2017-Jul-28 07:31N 40°46' W 074°00'0 0.0
2017-Jul-28 07:01N 40°46' W 074°00'0 0.0
2017-Jul-28 06:30N 40°46' W 074°00'0 0.0
2017-Jul-28 06:00N 40°46' W 074°00'0 0.0
2017-Jul-28 05:31N 40°46' W 074°00'0 0.0
2017-Jul-28 05:00N 40°46' W 074°00'0 0.0
2017-Jul-28 04:30N 40°46' W 074°00'0 0.0
2017-Jul-28 04:01N 40°46' W 074°00'0 0.0
2017-Jul-28 03:30N 40°46' W 074°00'0 0.0
2017-Jul-28 03:00N 40°46' W 074°00'0 0.0
2017-Jul-28 02:31N 40°46' W 074°00'0 0.0
2017-Jul-28 02:00N 40°46' W 074°00'0 0.0
2017-Jul-28 01:31N 40°46' W 074°00'0 0.0
2017-Jul-28 01:00N 40°46' W 074°00'0 0.0
2017-Jul-28 00:30N 40°46' W 074°00'0 0.0
2017-Jul-28 00:01N 40°46' W 074°00'0 0.0
2017-Jul-27 23:31N 40°46' W 074°00'0 0.0
2017-Jul-27 23:01N 40°46' W 074°00'0 0.0
2017-Jul-27 22:30N 40°46' W 074°00'0 0.0
2017-Jul-27 22:01N 40°46' W 074°00'0 0.0
2017-Jul-27 21:30N 40°46' W 074°00'0 0.5
2017-Jul-27 21:00N 40°46' W 074°00'0 0.4
2017-Jul-27 20:30N 40°46' W 074°00'0 0.0
2017-Jul-27 20:00N 40°46' W 074°00'1 1.7
2017-Jul-27 19:30N 40°46' W 074°01'4 7.8
2017-Jul-27 19:00N 40°42' W 074°02'2 4.9
2017-Jul-27 18:31N 40°41' W 074°05'0 0.0
2017-Jul-27 18:01N 40°41' W 074°05'0 0.0
2017-Jul-27 17:30N 40°41' W 074°05'0 0.0
2017-Jul-27 17:01N 40°41' W 074°05'1 2.1
2017-Jul-27 16:30N 40°41' W 074°03'3 6.5
2017-Jul-27 16:00N 40°43' W 074°01'3 6.0
2017-Jul-27 15:30N 40°46' W 074°00'0 0.0
2017-Jul-27 15:01N 40°46' W 074°00'0 0.0
2017-Jul-27 14:00N 40°46' W 074°00'0 0.1
2017-Jul-27 13:30N 40°46' W 074°00'0 0.0
2017-Jul-27 13:00N 40°46' W 074°00'0 0.0
2017-Jul-27 12:30N 40°46' W 074°00'0 0.6
2017-Jul-27 12:00N 40°46' W 074°00'0 0.6
2017-Jul-27 11:30N 40°46' W 074°00'0 0.0
2017-Jul-27 11:00N 40°46' W 074°00'0 0.0
2017-Jul-27 10:30N 40°46' W 074°00'0 0.6
2017-Jul-27 10:00N 40°46' W 074°00'0 0.7
2017-Jul-27 09:31N 40°46' W 074°00'0 0.0
2017-Jul-27 09:00N 40°46' W 074°00'0 0.0
2017-Jul-27 08:30N 40°46' W 074°00'0 0.0
2017-Jul-27 08:00N 40°46' W 074°00'0 0.0
2017-Jul-27 07:30N 40°46' W 074°00'0 0.0
2017-Jul-27 07:00N 40°46' W 074°00'0 0.0
2017-Jul-27 06:30N 40°46' W 074°00'0 0.0
2017-Jul-27 06:00N 40°46' W 074°00'0 0.0
2017-Jul-27 05:31N 40°46' W 074°00'0 0.0
2017-Jul-27 05:01N 40°46' W 074°00'0 0.0
2017-Jul-27 04:30N 40°46' W 074°00'0 0.0
2017-Jul-27 04:01N 40°46' W 074°00'0 0.0
2017-Jul-27 03:30N 40°46' W 074°00'0 0.0
2017-Jul-27 03:00N 40°46' W 074°00'0 0.0
2017-Jul-27 02:30N 40°46' W 074°00'0 0.0
2017-Jul-27 02:00N 40°46' W 074°00'0 0.0
2017-Jul-27 01:30N 40°46' W 074°00'0 0.0
2017-Jul-27 01:00N 40°46' W 074°00'0 0.0
2017-Jul-27 00:30N 40°46' W 074°00'0 0.0
2017-Jul-27 00:00N 40°46' W 074°00'0 0.0
2017-Jul-26 23:30N 40°46' W 074°00'0 0.6
2017-Jul-26 23:00N 40°46' W 074°00'0 0.6
2017-Jul-26 22:31N 40°46' W 074°00'0 0.4
2017-Jul-26 22:00N 40°46' W 074°00'0 0.4
2017-Jul-26 21:30N 40°46' W 074°00'0 0.0
2017-Jul-26 21:00N 40°46' W 074°00'0 0.0
2017-Jul-26 20:31N 40°46' W 074°00'0 0.0
2017-Jul-26 20:00N 40°46' W 074°00'2 3.4
2017-Jul-26 19:30N 40°45' W 074°01'2 3.3
2017-Jul-26 19:00N 40°46' W 074°00'0 0.0
2017-Jul-26 18:31N 40°46' W 074°00'0 0.6
2017-Jul-26 18:00N 40°46' W 074°00'0 0.6
2017-Jul-26 17:30N 40°46' W 074°00'0 0.0
2017-Jul-26 17:00N 40°46' W 074°00'0 0.7
2017-Jul-26 16:30N 40°46' W 074°00'0 0.7
2017-Jul-26 16:01N 40°46' W 074°00'0 0.2
2017-Jul-26 15:30N 40°46' W 073°60'0 0.2
2017-Jul-26 15:01N 40°46' W 074°00'0 0.0
2017-Jul-26 14:00N 40°46' W 074°00'0 0.0
2017-Jul-26 13:31N 40°46' W 074°00'0 0.0
2017-Jul-26 13:00N 40°46' W 074°00'0 0.0
2017-Jul-26 12:30N 40°46' W 074°00'0 0.0
2017-Jul-26 12:01N 40°46' W 074°00'0 0.0
2017-Jul-26 11:30N 40°46' W 074°00'0 0.0
2017-Jul-26 11:00N 40°46' W 074°00'0 0.0
2017-Jul-26 10:30N 40°46' W 074°00'0 0.6
2017-Jul-26 10:00N 40°46' W 074°00'0 0.6
2017-Jul-26 09:31N 40°46' W 074°00'0 0.0
2017-Jul-26 09:00N 40°46' W 074°00'0 0.0
2017-Jul-26 08:30N 40°46' W 074°00'0 0.0
2017-Jul-26 08:00N 40°46' W 074°00'0 0.0
2017-Jul-26 07:30N 40°46' W 074°00'0 0.0
2017-Jul-26 07:00N 40°46' W 074°00'0 0.0
2017-Jul-26 06:30N 40°46' W 074°00'0 0.0
2017-Jul-26 06:00N 40°46' W 074°00'0 0.0
2017-Jul-26 05:30N 40°46' W 074°00'0 0.0
2017-Jul-26 05:00N 40°46' W 074°00'0 0.0
2017-Jul-26 04:30N 40°46' W 074°00'0 0.0
2017-Jul-26 04:00N 40°46' W 074°00'0 0.0
2017-Jul-26 03:30N 40°46' W 074°00'0 0.0
2017-Jul-26 03:00N 40°46' W 074°00'0 0.0
2017-Jul-26 02:30N 40°46' W 074°00'0 0.0
2017-Jul-26 02:00N 40°46' W 074°00'0 0.0
2017-Jul-26 01:30N 40°46' W 074°00'0 0.0
2017-Jul-26 01:00N 40°46' W 074°00'0 0.0
2017-Jul-26 00:30N 40°46' W 074°00'0 0.0
2017-Jul-26 00:00N 40°46' W 074°00'0 0.0
2017-Jul-25 23:30N 40°46' W 074°00'0 0.1
2017-Jul-25 23:00N 40°46' W 074°00'0 0.1
2017-Jul-25 22:30N 40°46' W 074°00'0 0.0
2017-Jul-25 22:00N 40°46' W 074°00'0 0.0
2017-Jul-25 21:30N 40°46' W 074°00'0 0.0
2017-Jul-25 21:00N 40°46' W 074°00'0 0.0
2017-Jul-25 20:30N 40°46' W 074°00'0 0.0
2017-Jul-25 20:00N 40°46' W 074°00'0 0.0
2017-Jul-25 19:30N 40°46' W 074°00'0 0.0
2017-Jul-25 19:00N 40°46' W 074°00'0 0.0
2017-Jul-25 18:30N 40°46' W 074°00'0 0.0
2017-Jul-25 18:00N 40°46' W 074°00'0 0.0
2017-Jul-25 17:30N 40°46' W 074°00'0 0.0
2017-Jul-25 17:00N 40°46' W 074°00'0 0.0
2017-Jul-25 16:30N 40°46' W 074°00'0 0.0
2017-Jul-25 16:00N 40°46' W 074°00'0 0.0
2017-Jul-25 15:31N 40°46' W 074°00'0 0.0
2017-Jul-25 15:01N 40°46' W 074°00'7 6.7
2017-Jul-25 14:00N 40°40' W 074°05'0 0.3
2017-Jul-25 13:31N 40°41' W 074°05'0 0.1
2017-Jul-25 13:00N 40°41' W 074°05'3 5.9
2017-Jul-25 12:30N 40°42' W 074°02'4 8.0
2017-Jul-25 12:00N 40°46' W 074°00'0 0.0
2017-Jul-25 11:30N 40°46' W 074°00'0 0.0
2017-Jul-25 11:00N 40°46' W 074°00'0 0.0
2017-Jul-25 10:30N 40°46' W 074°00'0 0.6
2017-Jul-25 10:00N 40°46' W 074°00'0 0.6
2017-Jul-25 09:30N 40°46' W 074°00'0 0.0
2017-Jul-25 09:00N 40°46' W 074°00'0 0.0
2017-Jul-25 08:30N 40°46' W 074°00'0 0.0
2017-Jul-25 08:01N 40°46' W 074°00'0 0.0
2017-Jul-25 07:30N 40°46' W 074°00'0 0.0
2017-Jul-25 07:00N 40°46' W 074°00'0 0.0
2017-Jul-25 06:30N 40°46' W 074°00'0 0.0
2017-Jul-25 06:00N 40°46' W 074°00'0 0.0
2017-Jul-25 05:30N 40°46' W 074°00'0 0.0
2017-Jul-25 05:00N 40°46' W 074°00'0 0.0
2017-Jul-25 04:30N 40°46' W 074°00'0 0.0
2017-Jul-25 04:00N 40°46' W 074°00'0 0.0
2017-Jul-25 03:30N 40°46' W 074°00'0 0.0
2017-Jul-25 03:00N 40°46' W 074°00'0 0.0
2017-Jul-25 02:30N 40°46' W 074°00'0 0.0
2017-Jul-25 02:00N 40°46' W 074°00'0 0.0
2017-Jul-25 01:31N 40°46' W 074°00'0 0.0
2017-Jul-25 01:00N 40°46' W 074°00'0 0.0
2017-Jul-25 00:31N 40°46' W 074°00'0 0.0
2017-Jul-25 00:01N 40°46' W 074°00'0 0.6
2017-Jul-24 23:30N 40°46' W 074°00'0 0.3
2017-Jul-24 23:01N 40°46' W 074°00'0 0.3
2017-Jul-24 22:30N 40°46' W 074°00'0 0.0
2017-Jul-24 22:00N 40°46' W 074°00'0 0.0
2017-Jul-24 21:30N 40°46' W 074°00'0 0.1
2017-Jul-24 21:00N 40°46' W 073°60'0 0.1
2017-Jul-24 20:31N 40°46' W 074°00'0 0.0
2017-Jul-24 20:00N 40°46' W 074°00'0 0.0
2017-Jul-24 19:30N 40°46' W 074°00'0 0.0
2017-Jul-24 19:00N 40°46' W 074°00'0 0.0
2017-Jul-24 18:31N 40°46' W 074°00'0 0.0
2017-Jul-24 18:00N 40°46' W 074°00'0 0.0
2017-Jul-24 17:31N 40°46' W 074°00'0 0.0
2017-Jul-24 17:00N 40°46' W 074°00'0 0.0
2017-Jul-24 16:30N 40°46' W 074°00'0 0.0
2017-Jul-24 16:00N 40°46' W 074°00'2 0.5
2017-Jul-24 13:00N 40°45' W 074°01'2 3.3
2017-Jul-24 12:31N 40°46' W 074°00'0 0.0
2017-Jul-24 12:00N 40°46' W 074°00'0 0.0
2017-Jul-24 11:30N 40°46' W 074°00'0 0.3
2017-Jul-24 11:00N 40°46' W 074°00'0 0.4
2017-Jul-24 10:30N 40°46' W 074°00'0 0.2
2017-Jul-24 10:00N 40°46' W 074°00'0 0.3
2017-Jul-24 09:31N 40°46' W 074°00'0 0.4
2017-Jul-24 09:01N 40°46' W 074°00'1 1.3
2017-Jul-24 08:31N 40°45' W 074°01'1 1.5
2017-Jul-24 08:01N 40°45' W 074°01'1 1.4
2017-Jul-24 07:31N 40°44' W 074°01'1 1.2
2017-Jul-24 07:01N 40°43' W 074°01'1 1.7
2017-Jul-24 06:31N 40°43' W 074°02'1 2.0
2017-Jul-24 06:01N 40°42' W 074°02'1 1.9
2017-Jul-24 05:30N 40°41' W 074°03'1 2.2
2017-Jul-24 05:00N 40°40' W 074°04'0 0.7
2017-Jul-24 04:31N 40°41' W 074°04'0 0.0
2017-Jul-24 04:01N 40°41' W 074°04'1 1.3
2017-Jul-24 03:31N 40°41' W 074°05'0 0.0
2017-Jul-24 03:01N 40°41' W 074°05'0 0.0
2017-Jul-24 02:31N 40°41' W 074°05'0 0.0
2017-Jul-24 02:00N 40°41' W 074°05'0 0.0
2017-Jul-24 01:31N 40°41' W 074°05'1 1.3
2017-Jul-24 01:01N 40°41' W 074°05'0 0.1
2017-Jul-24 00:30N 40°41' W 074°05'0 0.0
2017-Jul-24 00:01N 40°41' W 074°05'0 0.0
2017-Jul-23 23:30N 40°41' W 074°05'0 0.0
2017-Jul-23 23:00N 40°41' W 074°05'0 0.0
2017-Jul-23 22:31N 40°41' W 074°05'0 0.0
2017-Jul-23 22:00N 40°41' W 074°05'0 0.0
2017-Jul-23 21:31N 40°41' W 074°05'0 0.0
2017-Jul-23 21:01N 40°41' W 074°05'0 0.0
2017-Jul-23 20:30N 40°41' W 074°05'0 0.0
2017-Jul-23 20:01N 40°41' W 074°05'0 0.0
2017-Jul-23 19:31N 40°41' W 074°05'0 0.0
2017-Jul-23 19:00N 40°41' W 074°05'0 0.0
2017-Jul-23 18:30N 40°41' W 074°05'0 0.0
2017-Jul-23 18:00N 40°41' W 074°05'0 0.0
2017-Jul-23 17:30N 40°41' W 074°05'0 0.0
2017-Jul-23 17:01N 40°41' W 074°05'0 0.0
2017-Jul-23 16:31N 40°41' W 074°05'0 0.0
2017-Jul-23 16:01N 40°41' W 074°05'0 0.0
2017-Jul-23 15:31N 40°41' W 074°05'0 0.0
2017-Jul-23 15:00N 40°41' W 074°05'0 0.0
2017-Jul-23 14:31N 40°41' W 074°05'0 0.0
2017-Jul-23 14:00N 40°41' W 074°05'0 0.0
2017-Jul-23 13:31N 40°41' W 074°05'0 0.0
2017-Jul-23 13:01N 40°41' W 074°05'0 0.0
2017-Jul-23 12:31N 40°41' W 074°05'0 0.0
2017-Jul-23 12:00N 40°41' W 074°05'0 0.0
2017-Jul-23 11:31N 40°41' W 074°05'0 0.0
2017-Jul-23 11:00N 40°41' W 074°05'0 0.0
2017-Jul-23 10:31N 40°41' W 074°05'0 0.0
2017-Jul-23 10:00N 40°41' W 074°05'0 0.0
2017-Jul-23 09:30N 40°41' W 074°05'0 0.0
2017-Jul-23 09:00N 40°41' W 074°05'0 0.0
2017-Jul-23 08:30N 40°41' W 074°05'0 0.0
2017-Jul-23 08:00N 40°41' W 074°05'0 0.0
2017-Jul-23 07:30N 40°41' W 074°05'0 0.0
2017-Jul-23 07:00N 40°41' W 074°05'0 0.0
2017-Jul-23 06:30N 40°41' W 074°05'0 0.0
2017-Jul-23 06:00N 40°41' W 074°05'0 0.0
2017-Jul-23 05:30N 40°41' W 074°05'0 0.0
2017-Jul-23 05:00N 40°41' W 074°05'0 0.0
2017-Jul-23 04:30N 40°41' W 074°05'0 0.0
2017-Jul-23 04:00N 40°41' W 074°05'0 0.0
2017-Jul-23 03:30N 40°41' W 074°05'0 0.0
2017-Jul-23 03:00N 40°41' W 074°05'0 0.0
2017-Jul-23 02:30N 40°41' W 074°05'0 0.0
2017-Jul-23 02:00N 40°41' W 074°05'0 0.0
2017-Jul-23 01:30N 40°41' W 074°05'0 0.0
2017-Jul-23 01:00N 40°41' W 074°05'0 0.0
2017-Jul-23 00:30N 40°41' W 074°05'0 0.0
2017-Jul-23 00:00N 40°41' W 074°05'0 0.0
2017-Jul-22 23:30N 40°41' W 074°05'0 0.0
2017-Jul-22 23:00N 40°41' W 074°05'0 0.0
2017-Jul-22 22:30N 40°41' W 074°05'0 0.0
2017-Jul-22 22:00N 40°41' W 074°05'0 0.0
2017-Jul-22 21:30N 40°41' W 074°05'0 0.0
2017-Jul-22 21:00N 40°41' W 074°05'0 0.0
2017-Jul-22 20:30N 40°41' W 074°05'0 0.0
2017-Jul-22 20:00N 40°41' W 074°05'0 0.0
2017-Jul-22 19:30N 40°41' W 074°05'0 0.0
2017-Jul-22 19:00N 40°41' W 074°05'0 0.1
2017-Jul-22 18:30N 40°41' W 074°04'0 0.0
2017-Jul-22 18:00N 40°41' W 074°04'0 0.0
2017-Jul-22 17:30N 40°41' W 074°04'0 0.0
2017-Jul-22 17:00N 40°41' W 074°04'0 0.0
2017-Jul-22 16:30N 40°41' W 074°04'0 0.0
2017-Jul-22 16:00N 40°41' W 074°04'0 0.2
2017-Jul-22 15:30N 40°40' W 074°04'0 0.0
2017-Jul-22 14:00N 40°40' W 074°04'0 0.0
2017-Jul-22 13:30N 40°40' W 074°04'0 0.0
2017-Jul-22 13:00N 40°40' W 074°04'0 0.0
2017-Jul-22 12:30N 40°40' W 074°04'0 0.1
2017-Jul-22 12:00N 40°40' W 074°04'0 0.0
2017-Jul-22 11:30N 40°40' W 074°04'0 0.0
2017-Jul-22 11:00N 40°40' W 074°04'0 0.0
2017-Jul-22 10:30N 40°40' W 074°04'0 0.0
2017-Jul-22 10:00N 40°40' W 074°04'0 0.0
2017-Jul-22 09:30N 40°40' W 074°04'0 0.0
2017-Jul-22 09:00N 40°40' W 074°04'0 0.0
2017-Jul-22 08:30N 40°40' W 074°04'0 0.0
2017-Jul-22 08:00N 40°40' W 074°04'0 0.0
2017-Jul-22 07:30N 40°40' W 074°04'0 0.0
2017-Jul-22 07:00N 40°40' W 074°04'0 0.0
2017-Jul-22 06:30N 40°40' W 074°04'0 0.0
2017-Jul-22 06:00N 40°40' W 074°04'0 0.0
2017-Jul-22 05:30N 40°40' W 074°04'0 0.0
2017-Jul-22 05:00N 40°40' W 074°04'0 0.0
2017-Jul-22 04:30N 40°40' W 074°04'0 0.0
2017-Jul-22 04:00N 40°40' W 074°04'0 0.0
2017-Jul-22 03:30N 40°40' W 074°04'0 0.0
2017-Jul-22 03:00N 40°40' W 074°04'0 0.0
2017-Jul-22 02:30N 40°40' W 074°04'0 0.0
2017-Jul-22 02:00N 40°40' W 074°04'0 0.0
2017-Jul-22 01:30N 40°40' W 074°04'0 0.0
2017-Jul-22 01:00N 40°40' W 074°04'0 0.0
2017-Jul-22 00:30N 40°40' W 074°04'0 0.0
2017-Jul-22 00:00N 40°40' W 074°04'0 0.0
2017-Jul-21 23:30N 40°40' W 074°04'0 0.0
2017-Jul-21 23:00N 40°40' W 074°04'0 0.0
2017-Jul-21 22:30N 40°40' W 074°04'1 1.5
2017-Jul-21 22:00N 40°41' W 074°05'0 0.0
2017-Jul-21 21:30N 40°41' W 074°05'0 0.0
2017-Jul-21 21:00N 40°41' W 074°05'0 0.0
2017-Jul-21 20:31N 40°41' W 074°05'0 0.0
2017-Jul-21 20:00N 40°41' W 074°05'0 0.0
2017-Jul-21 19:30N 40°41' W 074°05'0 0.0
2017-Jul-21 19:00N 40°41' W 074°05'1 2.3
2017-Jul-21 18:30N 40°40' W 074°04'4 7.2
2017-Jul-21 18:00N 40°39' W 074°08'3 6.0
2017-Jul-21 17:30N 40°38' W 074°12'0 0.0
2017-Jul-21 16:59N 40°38' W 074°12'0 0.0
2017-Jul-21 16:30N 40°38' W 074°12'0 0.0
2017-Jul-21 16:00N 40°38' W 074°12'3 5.2
2017-Jul-21 15:30N 40°39' W 074°08'4 7.2
2017-Jul-21 15:00N 40°40' W 074°04'1 1.4
2017-Jul-21 14:30N 40°40' W 074°04'0 0.0
2017-Jul-21 14:00N 40°40' W 074°04'0 0.0
2017-Jul-21 13:30N 40°40' W 074°04'0 0.0
2017-Jul-21 13:00N 40°40' W 074°04'0 0.0
2017-Jul-21 12:30N 40°40' W 074°04'0 0.0
2017-Jul-21 12:00N 40°40' W 074°04'0 0.0
2017-Jul-21 11:30N 40°40' W 074°04'0 0.0
2017-Jul-21 11:00N 40°40' W 074°04'0 0.0
2017-Jul-21 10:30N 40°40' W 074°04'0 0.0
2017-Jul-21 10:00N 40°40' W 074°04'0 0.0
2017-Jul-21 09:30N 40°40' W 074°04'0 0.0
2017-Jul-21 09:01N 40°40' W 074°04'0 0.0
2017-Jul-21 08:31N 40°40' W 074°04'0 0.0
2017-Jul-21 08:01N 40°40' W 074°04'0 0.0
2017-Jul-21 07:30N 40°40' W 074°04'0 0.0
2017-Jul-21 07:00N 40°40' W 074°04'0 0.0
2017-Jul-21 06:31N 40°40' W 074°04'0 0.0
2017-Jul-21 06:00N 40°40' W 074°04'0 0.0
2017-Jul-21 05:30N 40°40' W 074°04'0 0.0
2017-Jul-21 05:00N 40°40' W 074°04'0 0.0
2017-Jul-21 04:31N 40°40' W 074°04'0 0.0
2017-Jul-21 04:00N 40°40' W 074°04'0 0.0
2017-Jul-21 03:31N 40°40' W 074°04'0 0.0
2017-Jul-21 03:01N 40°40' W 074°04'0 0.0
2017-Jul-21 02:31N 40°40' W 074°04'0 0.0
2017-Jul-21 02:01N 40°40' W 074°04'0 0.0
2017-Jul-21 01:31N 40°40' W 074°04'0 0.0
2017-Jul-21 01:01N 40°40' W 074°04'0 0.0
2017-Jul-21 00:30N 40°40' W 074°04'0 0.0
2017-Jul-21 00:00N 40°40' W 074°04'0 0.0
2017-Jul-20 23:30N 40°40' W 074°04'0 0.0
2017-Jul-20 23:01N 40°40' W 074°04'0 0.0
2017-Jul-20 22:30N 40°40' W 074°04'0 0.0
2017-Jul-20 22:01N 40°40' W 074°04'0 0.0
2017-Jul-20 21:30N 40°40' W 074°04'0 0.0
2017-Jul-20 21:00N 40°40' W 074°04'0 0.0
2017-Jul-20 20:31N 40°40' W 074°04'0 0.0
2017-Jul-20 20:01N 40°40' W 074°04'0 0.0
2017-Jul-20 19:30N 40°40' W 074°04'0 0.0
2017-Jul-20 19:00N 40°40' W 074°04'0 0.0
2017-Jul-20 18:31N 40°40' W 074°04'0 0.6
2017-Jul-20 18:01N 40°40' W 074°04'2 3.7
2017-Jul-20 17:31N 40°42' W 074°02'4 7.6
2017-Jul-20 17:00N 40°45' W 074°01'1 1.8
2017-Jul-20 16:31N 40°46' W 074°00'0 0.4
2017-Jul-20 16:00N 40°46' W 074°00'0 0.0
2017-Jul-20 15:30N 40°46' W 074°00'0 0.0
2017-Jul-20 15:00N 40°46' W 074°00'0 0.0
2017-Jul-20 14:00N 40°46' W 074°00'0 0.0
2017-Jul-20 13:30N 40°46' W 074°00'0 0.0
2017-Jul-20 13:00N 40°46' W 074°00'0 0.0
2017-Jul-20 12:30N 40°46' W 074°00'0 0.0
2017-Jul-20 12:00N 40°46' W 074°00'0 0.0
2017-Jul-20 11:30N 40°46' W 074°00'0 0.0
2017-Jul-20 11:00N 40°46' W 074°00'0 0.0
2017-Jul-20 10:30N 40°46' W 074°00'0 0.6
2017-Jul-20 10:01N 40°46' W 074°00'0 0.5
2017-Jul-20 09:30N 40°46' W 073°60'0 0.0
2017-Jul-20 09:00N 40°46' W 073°60'0 0.0
2017-Jul-20 08:30N 40°46' W 073°60'0 0.0
2017-Jul-20 08:00N 40°46' W 073°60'0 0.0
2017-Jul-20 07:30N 40°46' W 073°60'0 0.0
2017-Jul-20 07:00N 40°46' W 073°60'0 0.0
2017-Jul-20 06:30N 40°46' W 073°60'0 0.0
2017-Jul-20 06:00N 40°46' W 073°60'0 0.0
2017-Jul-20 05:30N 40°46' W 073°60'0 0.0
2017-Jul-20 05:00N 40°46' W 073°60'0 0.0
2017-Jul-20 04:30N 40°46' W 073°60'0 0.0
2017-Jul-20 04:00N 40°46' W 073°60'0 0.0
2017-Jul-20 03:30N 40°46' W 073°60'0 0.0
2017-Jul-20 03:00N 40°46' W 073°60'0 0.0
2017-Jul-20 02:30N 40°46' W 073°60'0 0.0
2017-Jul-20 02:00N 40°46' W 073°60'0 0.0
2017-Jul-20 01:30N 40°46' W 073°60'0 0.8
2017-Jul-20 01:00N 40°46' W 074°00'4 7.9
2017-Jul-20 00:30N 40°42' W 074°02'3 5.2
2017-Jul-20 00:00N 40°41' W 074°04'1 2.6
2017-Jul-19 23:30N 40°39' W 074°05'4 7.2
2017-Jul-19 23:00N 40°39' W 074°09'2 4.1
2017-Jul-19 22:30N 40°41' W 074°09'1 1.0
2017-Jul-19 22:00N 40°41' W 074°08'3 5.1
2017-Jul-19 21:30N 40°39' W 074°07'4 7.6
2017-Jul-19 21:00N 40°41' W 074°03'4 7.1
2017-Jul-19 20:30N 40°44' W 074°01'2 4.1
2017-Jul-19 20:00N 40°46' W 074°00'0 0.6
2017-Jul-19 19:30N 40°46' W 074°00'1 2.2
2017-Jul-19 19:00N 40°45' W 074°01'2 3.0
2017-Jul-19 18:30N 40°46' W 074°00'0 0.3
2017-Jul-19 18:00N 40°46' W 074°00'0 0.0
2017-Jul-19 17:30N 40°46' W 074°00'0 0.0
2017-Jul-19 17:00N 40°46' W 074°00'0 0.0
2017-Jul-19 16:30N 40°46' W 074°00'0 0.0
2017-Jul-19 16:00N 40°46' W 074°00'0 0.0
2017-Jul-19 15:30N 40°46' W 074°00'0 0.0
2017-Jul-19 15:00N 40°46' W 074°00'2 3.0
2017-Jul-19 14:30N 40°45' W 074°01'3 6.4
2017-Jul-19 14:01N 40°42' W 074°02'2 4.1
2017-Jul-19 13:31N 40°41' W 074°05'1 2.1
2017-Jul-19 13:00N 40°40' W 074°04'1 2.3
2017-Jul-19 12:31N 40°41' W 074°05'0 0.0
2017-Jul-19 12:00N 40°41' W 074°05'0 0.0
2017-Jul-19 11:31N 40°41' W 074°05'0 0.0
2017-Jul-19 11:00N 40°41' W 074°05'0 0.0
2017-Jul-19 10:30N 40°41' W 074°05'2 4.6
2017-Jul-19 10:00N 40°42' W 074°02'4 7.3
2017-Jul-19 09:30N 40°46' W 074°01'1 1.5
2017-Jul-19 09:00N 40°46' W 073°60'0 0.0
2017-Jul-19 08:30N 40°46' W 073°60'0 0.0
2017-Jul-19 08:00N 40°46' W 073°60'0 0.0
2017-Jul-19 07:30N 40°46' W 073°60'0 0.0
2017-Jul-19 07:00N 40°46' W 073°60'0 0.0
2017-Jul-19 06:30N 40°46' W 073°60'0 0.0
2017-Jul-19 06:00N 40°46' W 073°60'0 0.0
2017-Jul-19 05:30N 40°46' W 073°60'0 0.0
2017-Jul-19 05:00N 40°46' W 073°60'0 0.0
2017-Jul-19 04:30N 40°46' W 073°60'0 0.0
2017-Jul-19 04:00N 40°46' W 073°60'0 0.0
2017-Jul-19 03:30N 40°46' W 073°60'0 0.0
2017-Jul-19 03:00N 40°46' W 073°60'0 0.0
2017-Jul-19 02:30N 40°46' W 073°60'0 0.0
2017-Jul-19 02:00N 40°46' W 073°60'0 0.0
2017-Jul-19 01:30N 40°46' W 073°60'0 0.0
2017-Jul-19 01:00N 40°46' W 073°60'0 0.4
2017-Jul-19 00:30N 40°46' W 074°00'4 7.5
2017-Jul-19 00:00N 40°43' W 074°02'3 5.9
2017-Jul-18 23:30N 40°40' W 074°04'0 0.4
2017-Jul-18 23:00N 40°40' W 074°04'2 3.4
2017-Jul-18 22:30N 40°41' W 074°02'2 3.3
2017-Jul-18 22:00N 40°43' W 074°02'1 2.8
2017-Jul-18 21:30N 40°44' W 074°01'2 3.0
2017-Jul-18 21:00N 40°46' W 074°01'1 2.4
2017-Jul-18 20:30N 40°47' W 074°00'1 2.1
2017-Jul-18 20:00N 40°48' W 073°59'1 1.8
2017-Jul-18 19:30N 40°48' W 073°59'0 0.4
2017-Jul-18 19:00N 40°49' W 073°59'0 0.0
2017-Jul-18 18:30N 40°49' W 073°59'0 0.0
2017-Jul-18 18:00N 40°49' W 073°59'2 3.9
2017-Jul-18 17:30N 40°47' W 073°60'1 1.0
2017-Jul-18 17:00N 40°46' W 074°00'0 0.0
2017-Jul-18 16:30N 40°46' W 074°00'0 0.1
2017-Jul-18 16:00N 40°46' W 074°00'0 0.0
2017-Jul-18 15:30N 40°46' W 074°00'0 0.0
2017-Jul-18 15:00N 40°46' W 074°00'0 0.0
2017-Jul-18 14:00N 40°46' W 074°00'0 0.1
2017-Jul-18 13:30N 40°46' W 074°00'1 1.8
2017-Jul-18 13:00N 40°47' W 073°60'2 3.2
2017-Jul-18 12:30N 40°49' W 073°59'0 0.0
2017-Jul-18 12:00N 40°49' W 073°59'0 0.0
2017-Jul-18 11:30N 40°49' W 073°59'0 0.0
2017-Jul-18 11:00N 40°49' W 073°59'0 0.0
2017-Jul-18 10:30N 40°49' W 073°59'3 5.6
2017-Jul-18 10:00N 40°46' W 074°00'0 0.5
2017-Jul-18 09:30N 40°46' W 073°60'0 0.0
2017-Jul-18 09:00N 40°46' W 073°60'0 0.0
2017-Jul-18 08:30N 40°46' W 073°60'  
Track history (hours):
 
Tides and Currents Weather Stations Pressure Air Temp Water Temp Dewpoint Dewpoint Depression Visibility Wind Speed Wind Dir Waves Ship Positions

MV Sea Wolf

Owner: SEA WOLF MARINE TOWING & TRANSPORTATION, Bayonne, NJ. More information available from US FCC via Universal Licensing System and Coast Guard Vessel Documentation Center.

Last reported at 2017-Jul-28 08:30 UTC. Time now 2017-Jul-28 08:41 UTC.
Position N 40°46' W 074°00'.

Length 66 m; draft 10 m.

MMSI: 367002350.

Date/timePositionNaut miles runAvg speedWind from/ knotsBaromVisibWave heightAir tempDewpointWater temp
2017-Jul-28 08:30N 40°46' W 074°00'0 0.0
2017-Jul-28 08:00N 40°46' W 074°00'0 0.0
2017-Jul-28 07:31N 40°46' W 074°00'0 0.0
2017-Jul-28 07:01N 40°46' W 074°00'0 0.0
2017-Jul-28 06:30N 40°46' W 074°00'0 0.0
2017-Jul-28 06:00N 40°46' W 074°00'0 0.0
2017-Jul-28 05:31N 40°46' W 074°00'0 0.0
2017-Jul-28 05:00N 40°46' W 074°00'0 0.0
2017-Jul-28 04:30N 40°46' W 074°00'0 0.0
2017-Jul-28 04:01N 40°46' W 074°00'0 0.0
2017-Jul-28 03:30N 40°46' W 074°00'0 0.0
2017-Jul-28 03:00N 40°46' W 074°00'0 0.0
2017-Jul-28 02:31N 40°46' W 074°00'0 0.0
2017-Jul-28 02:00N 40°46' W 074°00'0 0.0
2017-Jul-28 01:31N 40°46' W 074°00'0 0.0
2017-Jul-28 01:00N 40°46' W 074°00'0 0.0
2017-Jul-28 00:30N 40°46' W 074°00'0 0.0
2017-Jul-28 00:01N 40°46' W 074°00'0 0.0
2017-Jul-27 23:31N 40°46' W 074°00'0 0.0
2017-Jul-27 23:01N 40°46' W 074°00'0 0.0
2017-Jul-27 22:30N 40°46' W 074°00'0 0.0
2017-Jul-27 22:01N 40°46' W 074°00'0 0.0
2017-Jul-27 21:30N 40°46' W 074°00'0 0.5
2017-Jul-27 21:00N 40°46' W 074°00'0 0.4
2017-Jul-27 20:30N 40°46' W 074°00'0 0.0
2017-Jul-27 20:00N 40°46' W 074°00'1 1.7
2017-Jul-27 19:30N 40°46' W 074°01'4 7.8
2017-Jul-27 19:00N 40°42' W 074°02'2 4.9
2017-Jul-27 18:31N 40°41' W 074°05'0 0.0
2017-Jul-27 18:01N 40°41' W 074°05'0 0.0
2017-Jul-27 17:30N 40°41' W 074°05'0 0.0
2017-Jul-27 17:01N 40°41' W 074°05'1 2.1
2017-Jul-27 16:30N 40°41' W 074°03'3 6.5
2017-Jul-27 16:00N 40°43' W 074°01'3 6.0
2017-Jul-27 15:30N 40°46' W 074°00'0 0.0
2017-Jul-27 15:01N 40°46' W 074°00'0 0.0
2017-Jul-27 14:00N 40°46' W 074°00'0 0.1
2017-Jul-27 13:30N 40°46' W 074°00'0 0.0
2017-Jul-27 13:00N 40°46' W 074°00'0 0.0
2017-Jul-27 12:30N 40°46' W 074°00'0 0.6
2017-Jul-27 12:00N 40°46' W 074°00'0 0.6
2017-Jul-27 11:30N 40°46' W 074°00'0 0.0
2017-Jul-27 11:00N 40°46' W 074°00'0 0.0
2017-Jul-27 10:30N 40°46' W 074°00'0 0.6
2017-Jul-27 10:00N 40°46' W 074°00'0 0.7
2017-Jul-27 09:31N 40°46' W 074°00'0 0.0
2017-Jul-27 09:00N 40°46' W 074°00'0 0.0
2017-Jul-27 08:30N 40°46' W 074°00'0 0.0
2017-Jul-27 08:00N 40°46' W 074°00'0 0.0
2017-Jul-27 07:30N 40°46' W 074°00'0 0.0
2017-Jul-27 07:00N 40°46' W 074°00'0 0.0
2017-Jul-27 06:30N 40°46' W 074°00'0 0.0
2017-Jul-27 06:00N 40°46' W 074°00'0 0.0
2017-Jul-27 05:31N 40°46' W 074°00'0 0.0
2017-Jul-27 05:01N 40°46' W 074°00'0 0.0
2017-Jul-27 04:30N 40°46' W 074°00'0 0.0
2017-Jul-27 04:01N 40°46' W 074°00'0 0.0
2017-Jul-27 03:30N 40°46' W 074°00'0 0.0
2017-Jul-27 03:00N 40°46' W 074°00'0 0.0
2017-Jul-27 02:30N 40°46' W 074°00'0 0.0
2017-Jul-27 02:00N 40°46' W 074°00'0 0.0
2017-Jul-27 01:30N 40°46' W 074°00'0 0.0
2017-Jul-27 01:00N 40°46' W 074°00'0 0.0
2017-Jul-27 00:30N 40°46' W 074°00'0 0.0
2017-Jul-27 00:00N 40°46' W 074°00'0 0.0
2017-Jul-26 23:30N 40°46' W 074°00'0 0.6
2017-Jul-26 23:00N 40°46' W 074°00'0 0.6
2017-Jul-26 22:31N 40°46' W 074°00'0 0.4
2017-Jul-26 22:00N 40°46' W 074°00'0 0.4
2017-Jul-26 21:30N 40°46' W 074°00'0 0.0
2017-Jul-26 21:00N 40°46' W 074°00'0 0.0
2017-Jul-26 20:31N 40°46' W 074°00'0 0.0
2017-Jul-26 20:00N 40°46' W 074°00'2 3.4
2017-Jul-26 19:30N 40°45' W 074°01'2 3.3
2017-Jul-26 19:00N 40°46' W 074°00'0 0.0
2017-Jul-26 18:31N 40°46' W 074°00'0 0.6
2017-Jul-26 18:00N 40°46' W 074°00'0 0.6
2017-Jul-26 17:30N 40°46' W 074°00'0 0.0
2017-Jul-26 17:00N 40°46' W 074°00'0 0.7
2017-Jul-26 16:30N 40°46' W 074°00'0 0.7
2017-Jul-26 16:01N 40°46' W 074°00'0 0.2
2017-Jul-26 15:30N 40°46' W 073°60'0 0.2
2017-Jul-26 15:01N 40°46' W 074°00'0 0.0
2017-Jul-26 14:00N 40°46' W 074°00'0 0.0
2017-Jul-26 13:31N 40°46' W 074°00'0 0.0
2017-Jul-26 13:00N 40°46' W 074°00'0 0.0
2017-Jul-26 12:30N 40°46' W 074°00'0 0.0
2017-Jul-26 12:01N 40°46' W 074°00'0 0.0
2017-Jul-26 11:30N 40°46' W 074°00'0 0.0
2017-Jul-26 11:00N 40°46' W 074°00'0 0.0
2017-Jul-26 10:30N 40°46' W 074°00'0 0.6
2017-Jul-26 10:00N 40°46' W 074°00'0 0.6
2017-Jul-26 09:31N 40°46' W 074°00'0 0.0
2017-Jul-26 09:00N 40°46' W 074°00'0 0.0
2017-Jul-26 08:30N 40°46' W 074°00'0 0.0
2017-Jul-26 08:00N 40°46' W 074°00'0 0.0
2017-Jul-26 07:30N 40°46' W 074°00'0 0.0
2017-Jul-26 07:00N 40°46' W 074°00'0 0.0
2017-Jul-26 06:30N 40°46' W 074°00'0 0.0
2017-Jul-26 06:00N 40°46' W 074°00'0 0.0
2017-Jul-26 05:30N 40°46' W 074°00'0 0.0
2017-Jul-26 05:00N 40°46' W 074°00'0 0.0
2017-Jul-26 04:30N 40°46' W 074°00'0 0.0
2017-Jul-26 04:00N 40°46' W 074°00'0 0.0
2017-Jul-26 03:30N 40°46' W 074°00'0 0.0
2017-Jul-26 03:00N 40°46' W 074°00'0 0.0
2017-Jul-26 02:30N 40°46' W 074°00'0 0.0
2017-Jul-26 02:00N 40°46' W 074°00'0 0.0
2017-Jul-26 01:30N 40°46' W 074°00'0 0.0
2017-Jul-26 01:00N 40°46' W 074°00'0 0.0
2017-Jul-26 00:30N 40°46' W 074°00'0 0.0
2017-Jul-26 00:00N 40°46' W 074°00'0 0.0
2017-Jul-25 23:30N 40°46' W 074°00'0 0.1
2017-Jul-25 23:00N 40°46' W 074°00'0 0.1
2017-Jul-25 22:30N 40°46' W 074°00'0 0.0
2017-Jul-25 22:00N 40°46' W 074°00'0 0.0
2017-Jul-25 21:30N 40°46' W 074°00'0 0.0
2017-Jul-25 21:00N 40°46' W 074°00'0 0.0
2017-Jul-25 20:30N 40°46' W 074°00'0 0.0
2017-Jul-25 20:00N 40°46' W 074°00'0 0.0
2017-Jul-25 19:30N 40°46' W 074°00'0 0.0
2017-Jul-25 19:00N 40°46' W 074°00'0 0.0
2017-Jul-25 18:30N 40°46' W 074°00'0 0.0
2017-Jul-25 18:00N 40°46' W 074°00'0 0.0
2017-Jul-25 17:30N 40°46' W 074°00'0 0.0
2017-Jul-25 17:00N 40°46' W 074°00'0 0.0
2017-Jul-25 16:30N 40°46' W 074°00'0 0.0
2017-Jul-25 16:00N 40°46' W 074°00'0 0.0
2017-Jul-25 15:31N 40°46' W 074°00'0 0.0
2017-Jul-25 15:01N 40°46' W 074°00'7 6.7
2017-Jul-25 14:00N 40°40' W 074°05'0 0.3
2017-Jul-25 13:31N 40°41' W 074°05'0 0.1
2017-Jul-25 13:00N 40°41' W 074°05'3 5.9
2017-Jul-25 12:30N 40°42' W 074°02'4 8.0
2017-Jul-25 12:00N 40°46' W 074°00'0 0.0
2017-Jul-25 11:30N 40°46' W 074°00'0 0.0
2017-Jul-25 11:00N 40°46' W 074°00'0 0.0
2017-Jul-25 10:30N 40°46' W 074°00'0 0.6
2017-Jul-25 10:00N 40°46' W 074°00'0 0.6
2017-Jul-25 09:30N 40°46' W 074°00'0 0.0
2017-Jul-25 09:00N 40°46' W 074°00'0 0.0
2017-Jul-25 08:30N 40°46' W 074°00'0 0.0
2017-Jul-25 08:01N 40°46' W 074°00'0 0.0
2017-Jul-25 07:30N 40°46' W 074°00'0 0.0
2017-Jul-25 07:00N 40°46' W 074°00'0 0.0
2017-Jul-25 06:30N 40°46' W 074°00'0 0.0
2017-Jul-25 06:00N 40°46' W 074°00'0 0.0
2017-Jul-25 05:30N 40°46' W 074°00'0 0.0
2017-Jul-25 05:00N 40°46' W 074°00'0 0.0
2017-Jul-25 04:30N 40°46' W 074°00'0 0.0
2017-Jul-25 04:00N 40°46' W 074°00'0 0.0
2017-Jul-25 03:30N 40°46' W 074°00'0 0.0
2017-Jul-25 03:00N 40°46' W 074°00'0 0.0
2017-Jul-25 02:30N 40°46' W 074°00'0 0.0
2017-Jul-25 02:00N 40°46' W 074°00'0 0.0
2017-Jul-25 01:31N 40°46' W 074°00'0 0.0
2017-Jul-25 01:00N 40°46' W 074°00'0 0.0
2017-Jul-25 00:31N 40°46' W 074°00'0 0.0
2017-Jul-25 00:01N 40°46' W 074°00'0 0.6
2017-Jul-24 23:30N 40°46' W 074°00'0 0.3
2017-Jul-24 23:01N 40°46' W 074°00'0 0.3
2017-Jul-24 22:30N 40°46' W 074°00'0 0.0
2017-Jul-24 22:00N 40°46' W 074°00'0 0.0
2017-Jul-24 21:30N 40°46' W 074°00'0 0.1
2017-Jul-24 21:00N 40°46' W 073°60'0 0.1
2017-Jul-24 20:31N 40°46' W 074°00'0 0.0
2017-Jul-24 20:00N 40°46' W 074°00'0 0.0
2017-Jul-24 19:30N 40°46' W 074°00'0 0.0
2017-Jul-24 19:00N 40°46' W 074°00'0 0.0
2017-Jul-24 18:31N 40°46' W 074°00'0 0.0
2017-Jul-24 18:00N 40°46' W 074°00'0 0.0
2017-Jul-24 17:31N 40°46' W 074°00'0 0.0
2017-Jul-24 17:00N 40°46' W 074°00'0 0.0
2017-Jul-24 16:30N 40°46' W 074°00'0 0.0
2017-Jul-24 16:00N 40°46' W 074°00'2 0.5
2017-Jul-24 13:00N 40°45' W 074°01'2 3.3
2017-Jul-24 12:31N 40°46' W 074°00'0 0.0
2017-Jul-24 12:00N 40°46' W 074°00'0 0.0
2017-Jul-24 11:30N 40°46' W 074°00'0 0.3
2017-Jul-24 11:00N 40°46' W 074°00'0 0.4
2017-Jul-24 10:30N 40°46' W 074°00'0 0.2
2017-Jul-24 10:00N 40°46' W 074°00'0 0.3
2017-Jul-24 09:31N 40°46' W 074°00'0 0.4
2017-Jul-24 09:01N 40°46' W 074°00'1 1.3
2017-Jul-24 08:31N 40°45' W 074°01'1 1.5
2017-Jul-24 08:01N 40°45' W 074°01'1 1.4
2017-Jul-24 07:31N 40°44' W 074°01'1 1.2
2017-Jul-24 07:01N 40°43' W 074°01'1 1.7
2017-Jul-24 06:31N 40°43' W 074°02'1 2.0
2017-Jul-24 06:01N 40°42' W 074°02'1 1.9
2017-Jul-24 05:30N 40°41' W 074°03'1 2.2
2017-Jul-24 05:00N 40°40' W 074°04'0 0.7
2017-Jul-24 04:31N 40°41' W 074°04'0 0.0
2017-Jul-24 04:01N 40°41' W 074°04'1 1.3
2017-Jul-24 03:31N 40°41' W 074°05'0 0.0
2017-Jul-24 03:01N 40°41' W 074°05'0 0.0
2017-Jul-24 02:31N 40°41' W 074°05'0 0.0
2017-Jul-24 02:00N 40°41' W 074°05'0 0.0
2017-Jul-24 01:31N 40°41' W 074°05'1 1.3
2017-Jul-24 01:01N 40°41' W 074°05'0 0.1
2017-Jul-24 00:30N 40°41' W 074°05'0 0.0
2017-Jul-24 00:01N 40°41' W 074°05'0 0.0
2017-Jul-23 23:30N 40°41' W 074°05'0 0.0
2017-Jul-23 23:00N 40°41' W 074°05'0 0.0
2017-Jul-23 22:31N 40°41' W 074°05'0 0.0
2017-Jul-23 22:00N 40°41' W 074°05'0 0.0
2017-Jul-23 21:31N 40°41' W 074°05'0 0.0
2017-Jul-23 21:01N 40°41' W 074°05'0 0.0
2017-Jul-23 20:30N 40°41' W 074°05'0 0.0
2017-Jul-23 20:01N 40°41' W 074°05'0 0.0
2017-Jul-23 19:31N 40°41' W 074°05'0 0.0
2017-Jul-23 19:00N 40°41' W 074°05'0 0.0
2017-Jul-23 18:30N 40°41' W 074°05'0 0.0
2017-Jul-23 18:00N 40°41' W 074°05'0 0.0
2017-Jul-23 17:30N 40°41' W 074°05'0 0.0
2017-Jul-23 17:01N 40°41' W 074°05'0 0.0
2017-Jul-23 16:31N 40°41' W 074°05'0 0.0
2017-Jul-23 16:01N 40°41' W 074°05'0 0.0
2017-Jul-23 15:31N 40°41' W 074°05'0 0.0
2017-Jul-23 15:00N 40°41' W 074°05'0 0.0
2017-Jul-23 14:31N 40°41' W 074°05'0 0.0
2017-Jul-23 14:00N 40°41' W 074°05'0 0.0
2017-Jul-23 13:31N 40°41' W 074°05'0 0.0
2017-Jul-23 13:01N 40°41' W 074°05'0 0.0
2017-Jul-23 12:31N 40°41' W 074°05'0 0.0
2017-Jul-23 12:00N 40°41' W 074°05'0 0.0
2017-Jul-23 11:31N 40°41' W 074°05'0 0.0
2017-Jul-23 11:00N 40°41' W 074°05'0 0.0
2017-Jul-23 10:31N 40°41' W 074°05'0 0.0
2017-Jul-23 10:00N 40°41' W 074°05'0 0.0
2017-Jul-23 09:30N 40°41' W 074°05'0 0.0
2017-Jul-23 09:00N 40°41' W 074°05'0 0.0
2017-Jul-23 08:30N 40°41' W 074°05'0 0.0
2017-Jul-23 08:00N 40°41' W 074°05'0 0.0
2017-Jul-23 07:30N 40°41' W 074°05'0 0.0
2017-Jul-23 07:00N 40°41' W 074°05'0 0.0
2017-Jul-23 06:30N 40°41' W 074°05'0 0.0
2017-Jul-23 06:00N 40°41' W 074°05'0 0.0
2017-Jul-23 05:30N 40°41' W 074°05'0 0.0
2017-Jul-23 05:00N 40°41' W 074°05'0 0.0
2017-Jul-23 04:30N 40°41' W 074°05'0 0.0
2017-Jul-23 04:00N 40°41' W 074°05'0 0.0
2017-Jul-23 03:30N 40°41' W 074°05'0 0.0
2017-Jul-23 03:00N 40°41' W 074°05'0 0.0
2017-Jul-23 02:30N 40°41' W 074°05'0 0.0
2017-Jul-23 02:00N 40°41' W 074°05'0 0.0
2017-Jul-23 01:30N 40°41' W 074°05'0 0.0
2017-Jul-23 01:00N 40°41' W 074°05'0 0.0
2017-Jul-23 00:30N 40°41' W 074°05'0 0.0
2017-Jul-23 00:00N 40°41' W 074°05'0 0.0
2017-Jul-22 23:30N 40°41' W 074°05'0 0.0
2017-Jul-22 23:00N 40°41' W 074°05'0 0.0
2017-Jul-22 22:30N 40°41' W 074°05'0 0.0
2017-Jul-22 22:00N 40°41' W 074°05'0 0.0
2017-Jul-22 21:30N 40°41' W 074°05'0 0.0
2017-Jul-22 21:00N 40°41' W 074°05'0 0.0
2017-Jul-22 20:30N 40°41' W 074°05'0 0.0
2017-Jul-22 20:00N 40°41' W 074°05'0 0.0
2017-Jul-22 19:30N 40°41' W 074°05'0 0.0
2017-Jul-22 19:00N 40°41' W 074°05'0 0.1
2017-Jul-22 18:30N 40°41' W 074°04'0 0.0
2017-Jul-22 18:00N 40°41' W 074°04'0 0.0
2017-Jul-22 17:30N 40°41' W 074°04'0 0.0
2017-Jul-22 17:00N 40°41' W 074°04'0 0.0
2017-Jul-22 16:30N 40°41' W 074°04'0 0.0
2017-Jul-22 16:00N 40°41' W 074°04'0 0.2
2017-Jul-22 15:30N 40°40' W 074°04'0 0.0
2017-Jul-22 14:00N 40°40' W 074°04'0 0.0
2017-Jul-22 13:30N 40°40' W 074°04'0 0.0
2017-Jul-22 13:00N 40°40' W 074°04'0 0.0
2017-Jul-22 12:30N 40°40' W 074°04'0 0.1
2017-Jul-22 12:00N 40°40' W 074°04'0 0.0
2017-Jul-22 11:30N 40°40' W 074°04'0 0.0
2017-Jul-22 11:00N 40°40' W 074°04'0 0.0
2017-Jul-22 10:30N 40°40' W 074°04'0 0.0
2017-Jul-22 10:00N 40°40' W 074°04'0 0.0
2017-Jul-22 09:30N 40°40' W 074°04'0 0.0
2017-Jul-22 09:00N 40°40' W 074°04'0 0.0
2017-Jul-22 08:30N 40°40' W 074°04'0 0.0
2017-Jul-22 08:00N 40°40' W 074°04'0 0.0
2017-Jul-22 07:30N 40°40' W 074°04'0 0.0
2017-Jul-22 07:00N 40°40' W 074°04'0 0.0
2017-Jul-22 06:30N 40°40' W 074°04'0 0.0
2017-Jul-22 06:00N 40°40' W 074°04'0 0.0
2017-Jul-22 05:30N 40°40' W 074°04'0 0.0
2017-Jul-22 05:00N 40°40' W 074°04'0 0.0
2017-Jul-22 04:30N 40°40' W 074°04'0 0.0
2017-Jul-22 04:00N 40°40' W 074°04'0 0.0
2017-Jul-22 03:30N 40°40' W 074°04'0 0.0
2017-Jul-22 03:00N 40°40' W 074°04'0 0.0
2017-Jul-22 02:30N 40°40' W 074°04'0 0.0
2017-Jul-22 02:00N 40°40' W 074°04'0 0.0
2017-Jul-22 01:30N 40°40' W 074°04'0 0.0
2017-Jul-22 01:00N 40°40' W 074°04'0 0.0
2017-Jul-22 00:30N 40°40' W 074°04'0 0.0
2017-Jul-22 00:00N 40°40' W 074°04'0 0.0
2017-Jul-21 23:30N 40°40' W 074°04'0 0.0
2017-Jul-21 23:00N 40°40' W 074°04'0 0.0
2017-Jul-21 22:30N 40°40' W 074°04'1 1.5
2017-Jul-21 22:00N 40°41' W 074°05'0 0.0
2017-Jul-21 21:30N 40°41' W 074°05'0 0.0
2017-Jul-21 21:00N 40°41' W 074°05'0 0.0
2017-Jul-21 20:31N 40°41' W 074°05'0 0.0
2017-Jul-21 20:00N 40°41' W 074°05'0 0.0
2017-Jul-21 19:30N 40°41' W 074°05'0 0.0
2017-Jul-21 19:00N 40°41' W 074°05'1 2.3
2017-Jul-21 18:30N 40°40' W 074°04'4 7.2
2017-Jul-21 18:00N 40°39' W 074°08'3 6.0
2017-Jul-21 17:30N 40°38' W 074°12'0 0.0
2017-Jul-21 16:59N 40°38' W 074°12'0 0.0
2017-Jul-21 16:30N 40°38' W 074°12'0 0.0
2017-Jul-21 16:00N 40°38' W 074°12'3 5.2
2017-Jul-21 15:30N 40°39' W 074°08'4 7.2
2017-Jul-21 15:00N 40°40' W 074°04'1 1.4
2017-Jul-21 14:30N 40°40' W 074°04'0 0.0
2017-Jul-21 14:00N 40°40' W 074°04'0 0.0
2017-Jul-21 13:30N 40°40' W 074°04'0 0.0
2017-Jul-21 13:00N 40°40' W 074°04'0 0.0
2017-Jul-21 12:30N 40°40' W 074°04'0 0.0
2017-Jul-21 12:00N 40°40' W 074°04'0 0.0
2017-Jul-21 11:30N 40°40' W 074°04'0 0.0
2017-Jul-21 11:00N 40°40' W 074°04'0 0.0
2017-Jul-21 10:30N 40°40' W 074°04'0 0.0
2017-Jul-21 10:00N 40°40' W 074°04'0 0.0
2017-Jul-21 09:30N 40°40' W 074°04'0 0.0
2017-Jul-21 09:01N 40°40' W 074°04'0 0.0
2017-Jul-21 08:31N 40°40' W 074°04'0 0.0
2017-Jul-21 08:01N 40°40' W 074°04'0 0.0
2017-Jul-21 07:30N 40°40' W 074°04'0 0.0
2017-Jul-21 07:00N 40°40' W 074°04'0 0.0
2017-Jul-21 06:31N 40°40' W 074°04'0 0.0
2017-Jul-21 06:00N 40°40' W 074°04'0 0.0
2017-Jul-21 05:30N 40°40' W 074°04'0 0.0
2017-Jul-21 05:00N 40°40' W 074°04'0 0.0
2017-Jul-21 04:31N 40°40' W 074°04'0 0.0
2017-Jul-21 04:00N 40°40' W 074°04'0 0.0
2017-Jul-21 03:31N 40°40' W 074°04'0 0.0
2017-Jul-21 03:01N 40°40' W 074°04'0 0.0
2017-Jul-21 02:31N 40°40' W 074°04'0 0.0
2017-Jul-21 02:01N 40°40' W 074°04'0 0.0
2017-Jul-21 01:31N 40°40' W 074°04'0 0.0
2017-Jul-21 01:01N 40°40' W 074°04'0 0.0
2017-Jul-21 00:30N 40°40' W 074°04'0 0.0
2017-Jul-21 00:00N 40°40' W 074°04'0 0.0
2017-Jul-20 23:30N 40°40' W 074°04'0 0.0
2017-Jul-20 23:01N 40°40' W 074°04'0 0.0
2017-Jul-20 22:30N 40°40' W 074°04'0 0.0
2017-Jul-20 22:01N 40°40' W 074°04'0 0.0
2017-Jul-20 21:30N 40°40' W 074°04'0 0.0
2017-Jul-20 21:00N 40°40' W 074°04'0 0.0
2017-Jul-20 20:31N 40°40' W 074°04'0 0.0
2017-Jul-20 20:01N 40°40' W 074°04'0 0.0
2017-Jul-20 19:30N 40°40' W 074°04'0 0.0
2017-Jul-20 19:00N 40°40' W 074°04'0 0.0
2017-Jul-20 18:31N 40°40' W 074°04'0 0.6
2017-Jul-20 18:01N 40°40' W 074°04'2 3.7
2017-Jul-20 17:31N 40°42' W 074°02'4 7.6
2017-Jul-20 17:00N 40°45' W 074°01'1 1.8
2017-Jul-20 16:31N 40°46' W 074°00'0 0.4
2017-Jul-20 16:00N 40°46' W 074°00'0 0.0
2017-Jul-20 15:30N 40°46' W 074°00'0 0.0
2017-Jul-20 15:00N 40°46' W 074°00'0 0.0
2017-Jul-20 14:00N 40°46' W 074°00'0 0.0
2017-Jul-20 13:30N 40°46' W 074°00'0 0.0
2017-Jul-20 13:00N 40°46' W 074°00'0 0.0
2017-Jul-20 12:30N 40°46' W 074°00'0 0.0
2017-Jul-20 12:00N 40°46' W 074°00'0 0.0
2017-Jul-20 11:30N 40°46' W 074°00'0 0.0
2017-Jul-20 11:00N 40°46' W 074°00'0 0.0
2017-Jul-20 10:30N 40°46' W 074°00'0 0.6
2017-Jul-20 10:01N 40°46' W 074°00'0 0.5
2017-Jul-20 09:30N 40°46' W 073°60'0 0.0
2017-Jul-20 09:00N 40°46' W 073°60'0 0.0
2017-Jul-20 08:30N 40°46' W 073°60'0 0.0
2017-Jul-20 08:00N 40°46' W 073°60'0 0.0
2017-Jul-20 07:30N 40°46' W 073°60'0 0.0
2017-Jul-20 07:00N 40°46' W 073°60'0 0.0
2017-Jul-20 06:30N 40°46' W 073°60'0 0.0
2017-Jul-20 06:00N 40°46' W 073°60'0 0.0
2017-Jul-20 05:30N 40°46' W 073°60'0 0.0
2017-Jul-20 05:00N 40°46' W 073°60'0 0.0
2017-Jul-20 04:30N 40°46' W 073°60'0 0.0
2017-Jul-20 04:00N 40°46' W 073°60'0 0.0
2017-Jul-20 03:30N 40°46' W 073°60'0 0.0
2017-Jul-20 03:00N 40°46' W 073°60'0 0.0
2017-Jul-20 02:30N 40°46' W 073°60'0 0.0
2017-Jul-20 02:00N 40°46' W 073°60'0 0.0
2017-Jul-20 01:30N 40°46' W 073°60'0 0.8
2017-Jul-20 01:00N 40°46' W 074°00'4 7.9
2017-Jul-20 00:30N 40°42' W 074°02'3 5.2
2017-Jul-20 00:00N 40°41' W 074°04'1 2.6
2017-Jul-19 23:30N 40°39' W 074°05'4 7.2
2017-Jul-19 23:00N 40°39' W 074°09'2 4.1
2017-Jul-19 22:30N 40°41' W 074°09'1 1.0
2017-Jul-19 22:00N 40°41' W 074°08'3 5.1
2017-Jul-19 21:30N 40°39' W 074°07'4 7.6
2017-Jul-19 21:00N 40°41' W 074°03'4 7.1
2017-Jul-19 20:30N 40°44' W 074°01'2 4.1
2017-Jul-19 20:00N 40°46' W 074°00'0 0.6
2017-Jul-19 19:30N 40°46' W 074°00'1 2.2
2017-Jul-19 19:00N 40°45' W 074°01'2 3.0
2017-Jul-19 18:30N 40°46' W 074°00'0 0.3
2017-Jul-19 18:00N 40°46' W 074°00'0 0.0
2017-Jul-19 17:30N 40°46' W 074°00'0 0.0
2017-Jul-19 17:00N 40°46' W 074°00'0 0.0
2017-Jul-19 16:30N 40°46' W 074°00'0 0.0
2017-Jul-19 16:00N 40°46' W 074°00'0 0.0
2017-Jul-19 15:30N 40°46' W 074°00'0 0.0
2017-Jul-19 15:00N 40°46' W 074°00'2 3.0
2017-Jul-19 14:30N 40°45' W 074°01'3 6.4
2017-Jul-19 14:01N 40°42' W 074°02'2 4.1
2017-Jul-19 13:31N 40°41' W 074°05'1 2.1
2017-Jul-19 13:00N 40°40' W 074°04'1 2.3
2017-Jul-19 12:31N 40°41' W 074°05'0 0.0
2017-Jul-19 12:00N 40°41' W 074°05'0 0.0
2017-Jul-19 11:31N 40°41' W 074°05'0 0.0
2017-Jul-19 11:00N 40°41' W 074°05'0 0.0
2017-Jul-19 10:30N 40°41' W 074°05'2 4.6
2017-Jul-19 10:00N 40°42' W 074°02'4 7.3
2017-Jul-19 09:30N 40°46' W 074°01'1 1.5
2017-Jul-19 09:00N 40°46' W 073°60'0 0.0
2017-Jul-19 08:30N 40°46' W 073°60'0 0.0
2017-Jul-19 08:00N 40°46' W 073°60'0 0.0
2017-Jul-19 07:30N 40°46' W 073°60'0 0.0
2017-Jul-19 07:00N 40°46' W 073°60'0 0.0
2017-Jul-19 06:30N 40°46' W 073°60'0 0.0
2017-Jul-19 06:00N 40°46' W 073°60'0 0.0
2017-Jul-19 05:30N 40°46' W 073°60'0 0.0
2017-Jul-19 05:00N 40°46' W 073°60'0 0.0
2017-Jul-19 04:30N 40°46' W 073°60'0 0.0
2017-Jul-19 04:00N 40°46' W 073°60'0 0.0
2017-Jul-19 03:30N 40°46' W 073°60'0 0.0
2017-Jul-19 03:00N 40°46' W 073°60'0 0.0
2017-Jul-19 02:30N 40°46' W 073°60'0 0.0
2017-Jul-19 02:00N 40°46' W 073°60'0 0.0
2017-Jul-19 01:30N 40°46' W 073°60'0 0.0
2017-Jul-19 01:00N 40°46' W 073°60'0 0.4
2017-Jul-19 00:30N 40°46' W 074°00'4 7.5
2017-Jul-19 00:00N 40°43' W 074°02'3 5.9
2017-Jul-18 23:30N 40°40' W 074°04'0 0.4
2017-Jul-18 23:00N 40°40' W 074°04'2 3.4
2017-Jul-18 22:30N 40°41' W 074°02'2 3.3
2017-Jul-18 22:00N 40°43' W 074°02'1 2.8
2017-Jul-18 21:30N 40°44' W 074°01'2 3.0
2017-Jul-18 21:00N 40°46' W 074°01'1 2.4
2017-Jul-18 20:30N 40°47' W 074°00'1 2.1
2017-Jul-18 20:00N 40°48' W 073°59'1 1.8
2017-Jul-18 19:30N 40°48' W 073°59'0 0.4
2017-Jul-18 19:00N 40°49' W 073°59'0 0.0
2017-Jul-18 18:30N 40°49' W 073°59'0 0.0
2017-Jul-18 18:00N 40°49' W 073°59'2 3.9
2017-Jul-18 17:30N 40°47' W 073°60'1 1.0
2017-Jul-18 17:00N 40°46' W 074°00'0 0.0
2017-Jul-18 16:30N 40°46' W 074°00'0 0.1
2017-Jul-18 16:00N 40°46' W 074°00'0 0.0
2017-Jul-18 15:30N 40°46' W 074°00'0 0.0
2017-Jul-18 15:00N 40°46' W 074°00'0 0.0
2017-Jul-18 14:00N 40°46' W 074°00'0 0.1
2017-Jul-18 13:30N 40°46' W 074°00'1 1.8
2017-Jul-18 13:00N 40°47' W 073°60'2 3.2
2017-Jul-18 12:30N 40°49' W 073°59'0 0.0
2017-Jul-18 12:00N 40°49' W 073°59'0 0.0
2017-Jul-18 11:30N 40°49' W 073°59'0 0.0
2017-Jul-18 11:00N 40°49' W 073°59'0 0.0
2017-Jul-18 10:30N 40°49' W 073°59'3 5.6
2017-Jul-18 10:00N 40°46' W 074°00'0 0.5
2017-Jul-18 09:30N 40°46' W 073°60'0 0.0
2017-Jul-18 09:00N 40°46' W 073°60'0 0.0
2017-Jul-18 08:30N 40°46' W 073°60'  

Dump ship's entire track history